createdAt,value
2019-04-27T05:48:39.022Z,97253.52
2019-04-27T05:53:34.915Z,97248.70
2019-04-27T05:58:30.763Z,97251.17
2019-04-27T06:03:26.564Z,97247.84
2019-04-27T06:08:24.424Z,97237.20
2019-04-27T06:13:20.217Z,97241.84
2019-04-27T06:18:16.291Z,97245.58
2019-04-27T06:23:12.237Z,97244.11
2019-04-27T06:28:10.113Z,97234.81
2019-04-27T06:33:06.052Z,97224.69
2019-04-27T06:38:01.913Z,97225.45
2019-04-27T06:42:59.450Z,97227.37
2019-04-27T06:47:55.278Z,97227.98
2019-04-27T06:52:51.287Z,97222.31
2019-04-27T06:57:48.927Z,97229.50
2019-04-27T07:02:45.044Z,97236.30
2019-04-27T07:07:41.204Z,97229.78
2019-04-27T07:12:38.728Z,97234.78
2019-04-27T07:17:34.611Z,97244.23
2019-04-27T07:22:30.416Z,97243.14
2019-04-27T07:27:29.351Z,97246.20
2019-04-27T07:32:25.307Z,97245.82
2019-04-27T07:37:21.161Z,97241.85
2019-04-27T07:42:17.311Z,97241.46
2019-04-27T07:47:23.834Z,97252.36
2019-04-27T07:52:20.571Z,97248.70
2019-04-27T07:57:16.677Z,97248.38
2019-04-27T08:02:12.492Z,97255.67
2019-04-27T08:07:09.168Z,97257.87
2019-04-27T08:12:06.132Z,97264.55
2019-04-27T08:17:02.080Z,97267.22
2019-04-27T08:21:59.603Z,97269.28
2019-04-27T08:27:27.074Z,97282.81
2019-04-27T08:32:29.700Z,97278.78
2019-04-27T08:37:28.563Z,97283.78
2019-04-27T08:42:24.121Z,97279.06
2019-04-27T08:47:21.350Z,97274.53
2019-04-27T08:52:19.523Z,97275.76
2019-04-27T08:57:15.297Z,97282.98
2019-04-27T09:02:11.181Z,97280.61
2019-04-27T09:07:24.686Z,97277.45
2019-04-27T09:12:53.640Z,97270.11
2019-04-27T09:17:52.546Z,97264.30
2019-04-27T09:22:49.290Z,97266.66
2019-04-27T09:27:45.178Z,97256.41
2019-04-27T09:32:41.058Z,97254.91
2019-04-27T09:37:36.840Z,97259.67
2019-04-27T09:42:33.707Z,97250.69
2019-04-27T09:47:30.586Z,97263.17
2019-04-27T09:52:28.258Z,97256.33
2019-04-27T09:57:23.905Z,97245.56
2019-04-27T10:02:36.650Z,97255.68
2019-04-27T10:07:32.544Z,97250.00
2019-04-27T10:12:28.334Z,97231.92
2019-04-27T10:17:25.226Z,97229.13
2019-04-27T10:22:20.995Z,97223.12
2019-04-27T10:27:16.868Z,97225.33
2019-04-27T10:32:12.676Z,97218.33
2019-04-27T10:37:08.442Z,97213.06
2019-04-27T10:42:04.228Z,97212.12
2019-04-27T10:47:00.013Z,97198.95
2019-04-27T10:51:55.865Z,97191.91
2019-04-27T10:56:51.635Z,97181.90
2019-04-27T11:01:47.466Z,97178.45
2019-04-27T11:06:45.817Z,97167.70
2019-04-27T11:11:42.249Z,97162.62
2019-04-27T11:16:38.162Z,97164.22
2019-04-27T11:21:34.929Z,97157.66
2019-04-27T11:26:30.655Z,97160.83
2019-04-27T11:31:26.572Z,97151.53
2019-04-27T11:36:50.260Z,97145.34
2019-04-27T11:41:46.073Z,97132.67
2019-04-27T12:39:21.777Z,97097.75
2019-04-27T12:57:53.423Z,97081.84
2019-04-27T13:02:57.713Z,97070.36
2019-04-27T13:08:06.081Z,97052.42
2019-04-27T13:13:00.826Z,97060.29
2019-04-27T13:18:11.433Z,97045.98
2019-04-27T13:35:40.124Z,97025.94
2019-04-27T14:00:37.633Z,96972.88
2019-04-27T14:20:59.476Z,96942.45
2019-04-27T14:52:23.393Z,96983.23
2019-04-27T15:04:24.521Z,96924.65
2019-04-27T15:09:42.937Z,96919.59
2019-04-27T15:15:36.972Z,96915.77
2019-04-27T15:40:21.014Z,96947.80
2019-04-27T15:46:16.276Z,96953.77
2019-04-27T15:51:50.751Z,96974.81
2019-04-27T16:17:43.007Z,97010.54
2019-04-27T16:23:04.165Z,97022.73
2019-04-27T16:28:23.255Z,97029.39
2019-04-27T16:33:54.017Z,97033.02
2019-04-27T16:39:53.683Z,97042.44
2019-04-27T16:57:50.890Z,97054.44
2019-04-27T17:09:31.060Z,97082.77
2019-04-27T17:15:10.674Z,97091.98
2019-04-27T17:21:53.921Z,97093.91
2019-04-27T17:27:11.658Z,97114.43
2019-04-27T17:33:10.905Z,97099.42
2019-04-27T18:19:00.085Z,97200.02
2019-04-27T18:37:53.671Z,97230.03
2019-04-27T18:42:48.694Z,97223.52
2019-04-27T18:47:55.054Z,97230.47
2019-04-27T18:53:16.469Z,97251.73
2019-04-27T18:58:40.438Z,97250.06
2019-04-27T19:03:36.284Z,97262.28
2019-04-27T19:08:32.080Z,97275.65
2019-04-27T19:13:27.793Z,97289.34
2019-04-27T19:18:23.515Z,97298.52
2019-04-27T19:23:19.377Z,97326.55
2019-04-27T19:28:32.097Z,97342.63
2019-04-27T19:33:29.180Z,97354.95
2019-04-27T19:38:25.371Z,97358.03
2019-04-27T19:43:21.129Z,97381.28
2019-04-27T19:48:18.171Z,97387.08
2019-04-27T19:53:14.016Z,97393.77
2019-04-27T19:58:09.814Z,97397.16
2019-04-27T20:08:09.496Z,97411.05
2019-04-27T20:13:05.220Z,97405.97
2019-04-27T20:18:01.050Z,97411.38
2019-04-27T20:22:56.892Z,97412.12
2019-04-27T20:27:52.647Z,97399.59
2019-04-27T20:32:48.359Z,97410.98
2019-04-27T20:37:44.121Z,97409.07
2019-04-27T20:42:41.553Z,97399.03
2019-04-27T20:47:37.477Z,97402.84
2019-04-27T20:52:48.799Z,97403.92
2019-04-27T20:57:44.561Z,97416.03
2019-04-27T21:02:53.109Z,97413.36
2019-04-27T21:07:52.828Z,97399.75
2019-04-27T21:12:48.635Z,97414.54
2019-04-27T21:17:44.349Z,97420.86
2019-04-27T21:22:41.634Z,97417.48
2019-04-27T21:27:41.773Z,97399.18
2019-04-27T21:32:40.592Z,97412.66
2019-04-27T21:37:36.439Z,97408.77
2019-04-27T21:42:32.257Z,97408.16
2019-04-27T21:47:29.147Z,97422.63
2019-04-27T21:52:31.584Z,97426.66
2019-04-27T21:57:27.511Z,97424.85
2019-04-27T22:02:23.579Z,97432.68
2019-04-27T22:07:19.395Z,97432.22
2019-04-27T22:12:15.221Z,97441.55
2019-04-27T22:17:11.112Z,97437.45
2019-04-27T22:22:12.573Z,97439.28
2019-04-27T22:27:08.807Z,97445.75
2019-04-27T22:32:05.107Z,97443.33
2019-04-27T22:37:02.742Z,97436.65
2019-04-27T22:42:17.396Z,97437.09
2019-04-27T22:47:14.229Z,97435.94
2019-04-27T22:52:11.640Z,97442.68
2019-04-27T22:57:25.901Z,97449.41
2019-04-27T23:02:31.880Z,97455.28
2019-04-27T23:07:27.949Z,97505.30
2019-04-27T23:12:23.879Z,97512.38
2019-04-27T23:17:37.077Z,97500.05
2019-04-27T23:22:32.792Z,97501.48
2019-04-27T23:27:28.529Z,97494.45
2019-04-27T23:32:40.857Z,97491.39
2019-04-27T23:37:36.731Z,97487.80
2019-04-27T23:42:32.424Z,97484.73
2019-04-27T23:47:28.491Z,97473.24
2019-04-27T23:52:43.060Z,97473.91
2019-04-27T23:57:38.943Z,97478.52
